createdAt,value
2017-11-21T00:00:56.380Z,933.51
2017-11-21T00:02:12.756Z,933.5
2017-11-21T00:03:25.059Z,933.51
2017-11-21T00:04:36.873Z,933.47
2017-11-21T00:05:49.211Z,933.53
2017-11-21T00:07:01.472Z,933.53
2017-11-21T00:08:14.209Z,933.52
2017-11-21T00:09:26.524Z,933.52
2017-11-21T00:10:39.234Z,933.46
2017-11-21T00:11:51.944Z,933.43
2017-11-21T00:13:04.244Z,933.48
2017-11-21T00:14:16.978Z,933.5
2017-11-21T00:15:29.655Z,933.54
2017-11-21T00:16:42.351Z,933.55
2017-11-21T00:17:54.600Z,933.56
2017-11-21T00:19:07.334Z,933.52
2017-11-21T00:20:19.651Z,933.54
2017-11-21T00:21:32.412Z,933.58
2017-11-21T00:23:19.565Z,933.61
2017-11-21T00:24:31.814Z,933.63
2017-11-21T00:25:44.515Z,933.63
2017-11-21T00:26:57.210Z,933.6
2017-11-21T00:28:09.932Z,933.62
2017-11-21T00:29:22.693Z,933.58
2017-11-21T00:30:35.422Z,933.54
2017-11-21T00:31:48.114Z,933.55
2017-11-21T00:33:20.076Z,933.52
2017-11-21T00:34:32.864Z,933.52
2017-11-21T00:35:45.567Z,933.53
2017-11-21T00:36:58.303Z,933.52
2017-11-21T00:38:11.475Z,933.53
2017-11-21T00:39:24.209Z,933.5
2017-11-21T00:40:35.591Z,933.53
2017-11-21T00:41:47.903Z,933.45
2017-11-21T00:43:00.606Z,933.43
2017-11-21T00:44:16.338Z,933.4
2017-11-21T00:45:34.288Z,933.39
2017-11-21T00:46:46.534Z,933.34
2017-11-21T00:47:59.284Z,933.33
2017-11-21T00:49:11.994Z,933.31
2017-11-21T00:50:24.330Z,933.29
2017-11-21T00:51:36.616Z,933.25
2017-11-21T00:52:49.315Z,933.24
2017-11-21T00:54:02.055Z,933.22
2017-11-21T00:55:14.288Z,933.22
2017-11-21T00:56:26.986Z,933.24
2017-11-21T00:57:39.735Z,933.24
2017-11-21T00:58:52.410Z,933.25
2017-11-21T01:00:04.642Z,933.21
2017-11-21T01:01:17.323Z,933.22
2017-11-21T01:02:29.549Z,933.2
2017-11-21T01:03:42.319Z,933.17
2017-11-21T01:04:54.990Z,933.22
2017-11-21T01:06:11.766Z,933.25
2017-11-21T01:07:23.538Z,933.29
2017-11-21T01:08:36.250Z,933.33
2017-11-21T01:09:48.530Z,933.3
2017-11-21T01:11:01.263Z,933.29
2017-11-21T01:12:13.989Z,933.29
2017-11-21T01:13:26.298Z,933.32
2017-11-21T01:14:39.034Z,933.36
2017-11-21T01:15:51.282Z,933.33
2017-11-21T01:17:28.527Z,933.34
2017-11-21T01:18:41.211Z,933.33
2017-11-21T01:19:53.470Z,933.28
2017-11-21T01:21:06.192Z,933.31
2017-11-21T01:22:18.916Z,933.32
2017-11-21T01:23:31.683Z,933.33
2017-11-21T01:24:44.361Z,933.34
2017-11-21T01:25:57.142Z,933.35
2017-11-21T01:27:09.481Z,933.3
2017-11-21T01:28:46.393Z,933.29
2017-11-21T01:29:58.735Z,933.27
2017-11-21T01:31:11.514Z,933.25
2017-11-21T01:32:24.295Z,933.26
2017-11-21T01:33:36.623Z,933.3
2017-11-21T01:34:49.402Z,933.29
2017-11-21T01:36:02.180Z,933.3
2017-11-21T01:37:14.504Z,933.25
2017-11-21T01:38:27.285Z,933.26
2017-11-21T01:39:40.068Z,933.2
2017-11-21T01:40:52.875Z,933.17
2017-11-21T01:42:05.663Z,933.11
2017-11-21T01:43:18.433Z,933.16
2017-11-21T01:44:31.240Z,933.19
2017-11-21T01:45:44.009Z,933.23
2017-11-21T01:46:56.780Z,933.21
2017-11-21T01:48:09.537Z,933.15
2017-11-21T01:49:42.891Z,933.18
2017-11-21T01:50:55.202Z,933.17
2017-11-21T01:52:07.977Z,933.17
2017-11-21T01:53:20.314Z,933.17
2017-11-21T01:54:33.079Z,933.12
2017-11-21T01:55:45.840Z,933.15
2017-11-21T01:56:58.590Z,933.12
2017-11-21T01:58:10.463Z,933.1
2017-11-21T01:59:23.214Z,933.11
2017-11-21T02:00:59.390Z,933.06
2017-11-21T02:02:11.597Z,933.05
2017-11-21T02:03:24.278Z,933.05
2017-11-21T02:04:36.944Z,933.06
2017-11-21T02:05:49.643Z,933.02
2017-11-21T02:07:00.996Z,933.07
2017-11-21T02:08:13.648Z,933.07
2017-11-21T02:09:25.962Z,933.12
2017-11-21T02:10:38.403Z,933.04
2017-11-21T02:11:58.887Z,933.05
2017-11-21T02:13:11.561Z,933.02
2017-11-21T02:14:24.276Z,932.99
2017-11-21T02:15:36.951Z,932.97
2017-11-21T02:16:49.623Z,932.94
2017-11-21T02:18:02.383Z,932.94
2017-11-21T02:19:15.041Z,932.94
2017-11-21T02:20:27.249Z,932.94
2017-11-21T02:21:39.997Z,932.98
2017-11-21T02:22:52.692Z,932.99
2017-11-21T02:24:05.408Z,933.03
2017-11-21T02:25:18.225Z,933.01
2017-11-21T02:26:30.911Z,933.02
2017-11-21T02:27:43.625Z,933
2017-11-21T02:28:56.320Z,933
2017-11-21T02:30:09.037Z,932.97
2017-11-21T02:31:21.818Z,932.94
2017-11-21T02:32:34.524Z,932.98
2017-11-21T02:33:57.310Z,932.99
2017-11-21T02:35:09.544Z,932.98
2017-11-21T02:36:22.219Z,932.99
2017-11-21T02:37:34.495Z,932.98
2017-11-21T02:38:46.731Z,932.94
2017-11-21T02:39:59.451Z,932.9
2017-11-21T02:41:11.233Z,932.91
2017-11-21T02:42:23.940Z,932.92
2017-11-21T02:43:36.657Z,932.92
2017-11-21T02:44:49.322Z,932.95
2017-11-21T02:46:01.599Z,932.93
2017-11-21T02:47:13.877Z,932.89
2017-11-21T02:48:26.557Z,932.87
2017-11-21T02:49:38.846Z,932.86
2017-11-21T02:50:51.120Z,932.83
2017-11-21T02:52:03.380Z,932.85
2017-11-21T02:53:15.575Z,932.84
2017-11-21T02:54:49.960Z,932.83
2017-11-21T02:56:02.606Z,932.81
2017-11-21T02:57:15.281Z,932.82
2017-11-21T02:58:27.947Z,932.78
2017-11-21T02:59:40.590Z,932.77
2017-11-21T03:00:53.207Z,932.71
2017-11-21T03:02:05.385Z,932.7
2017-11-21T03:03:18.010Z,932.71
2017-11-21T03:04:31.915Z,932.75
2017-11-21T03:05:57.337Z,932.73
2017-11-21T03:07:10.002Z,932.76
2017-11-21T03:08:22.678Z,932.73
2017-11-21T03:09:34.985Z,932.67
2017-11-21T03:10:47.295Z,932.62
2017-11-21T03:12:00.051Z,932.57
2017-11-21T03:13:12.333Z,932.55
2017-11-21T03:14:25.013Z,932.48
2017-11-21T03:15:40.739Z,932.5
2017-11-21T03:16:55.511Z,932.51
2017-11-21T03:18:08.218Z,932.49
2017-11-21T03:19:20.941Z,932.51
2017-11-21T03:20:33.566Z,932.49
2017-11-21T03:21:45.334Z,932.47
2017-11-21T03:22:58.034Z,932.45
2017-11-21T03:24:10.305Z,932.44
2017-11-21T03:25:23.042Z,932.43
2017-11-21T03:26:35.793Z,932.36
2017-11-21T03:27:48.553Z,932.37
2017-11-21T03:29:01.293Z,932.38
2017-11-21T03:30:13.703Z,932.37
2017-11-21T03:31:26.471Z,932.3
2017-11-21T03:32:39.228Z,932.19
2017-11-21T03:33:51.979Z,932.16
2017-11-21T03:35:04.285Z,932.11
2017-11-21T03:36:17.061Z,932.08
2017-11-21T03:37:30.007Z,932.07
2017-11-21T03:38:50.806Z,932.07
2017-11-21T03:40:03.556Z,932.08
2017-11-21T03:41:15.400Z,932.06
2017-11-21T03:42:27.689Z,932.07
2017-11-21T03:43:40.441Z,932.06
2017-11-21T03:44:53.211Z,932.08
2017-11-21T03:46:05.965Z,932.09
2017-11-21T03:47:18.742Z,932.15
2017-11-21T03:48:31.518Z,932.15
2017-11-21T03:49:44.288Z,932.17
2017-11-21T03:50:57.054Z,932.14
2017-11-21T03:52:09.377Z,932.12
2017-11-21T03:53:21.699Z,932.12
2017-11-21T03:54:34.467Z,932.11
2017-11-21T03:55:47.233Z,932.09
2017-11-21T03:57:00.006Z,932.09
2017-11-21T03:58:12.812Z,932.08
2017-11-21T03:59:38.664Z,932.06
2017-11-21T04:00:51.437Z,932.05
2017-11-21T04:02:03.765Z,932.03
2017-11-21T04:03:16.087Z,931.95
2017-11-21T04:04:28.866Z,931.9
2017-11-21T04:05:41.641Z,931.91
2017-11-21T04:06:53.992Z,931.84
2017-11-21T04:08:06.777Z,931.8
2017-11-21T04:09:21.015Z,931.78
2017-11-21T04:10:56.595Z,931.71
2017-11-21T04:12:08.924Z,931.69
2017-11-21T04:13:21.703Z,931.65
2017-11-21T04:14:34.478Z,931.63
2017-11-21T04:15:47.272Z,931.59
2017-11-21T04:16:59.966Z,931.61
2017-11-21T04:18:12.693Z,931.58
2017-11-21T04:19:25.444Z,931.62
2017-11-21T04:20:38.052Z,931.62
2017-11-21T04:21:56.250Z,931.67
2017-11-21T04:23:08.433Z,931.63
2017-11-21T04:24:21.151Z,931.62
2017-11-21T04:25:33.350Z,931.62
2017-11-21T04:26:46.051Z,931.62
2017-11-21T04:27:58.761Z,931.66
2017-11-21T04:29:11.386Z,931.7
2017-11-21T04:30:24.094Z,931.78
2017-11-21T04:31:36.791Z,931.77
2017-11-21T04:32:49.494Z,931.76
2017-11-21T04:34:02.211Z,931.71
2017-11-21T04:35:15.000Z,931.64
2017-11-21T04:36:27.626Z,931.55
2017-11-21T04:43:52.580Z,931.11
2017-11-21T04:45:05.268Z,931.05
2017-11-21T04:46:17.849Z,930.99
2017-11-21T04:47:30.112Z,930.97
2017-11-21T04:48:42.780Z,930.92
2017-11-21T04:49:55.398Z,930.9
2017-11-21T04:51:07.603Z,930.88
2017-11-21T04:52:20.279Z,930.88
2017-11-21T04:53:32.960Z,930.91
2017-11-21T04:54:45.611Z,930.96
2017-11-21T04:55:58.284Z,931
2017-11-21T04:57:10.998Z,930.99
2017-11-21T04:58:23.663Z,930.99
2017-11-21T04:59:36.368Z,930.93
2017-11-21T05:00:49.087Z,930.95
2017-11-21T05:02:00.878Z,930.95
2017-11-21T05:03:13.120Z,930.96
2017-11-21T05:04:25.788Z,930.98
2017-11-21T05:05:38.498Z,930.96
2017-11-21T05:06:51.202Z,930.88
2017-11-21T05:08:03.443Z,930.82
2017-11-21T05:09:15.696Z,930.8
2017-11-21T05:10:28.299Z,930.81
2017-11-21T05:11:40.914Z,930.78
2017-11-21T05:12:53.543Z,930.77
2017-11-21T05:14:06.238Z,930.78
2017-11-21T05:15:18.417Z,930.73
2017-11-21T05:16:31.036Z,930.71
2017-11-21T05:17:43.677Z,930.61
2017-11-21T05:18:56.324Z,930.58
2017-11-21T05:20:08.999Z,930.56
2017-11-21T05:21:21.202Z,930.58
2017-11-21T05:22:33.906Z,930.59
2017-11-21T05:23:46.089Z,930.57
2017-11-21T05:24:58.657Z,930.48
2017-11-21T05:26:11.353Z,930.44
2017-11-21T05:27:23.959Z,930.5
2017-11-21T05:28:36.624Z,930.51
2017-11-21T05:29:48.898Z,930.49
2017-11-21T05:31:01.485Z,930.53
2017-11-21T05:32:14.090Z,930.58
2017-11-21T05:33:26.697Z,930.64
2017-11-21T05:34:39.326Z,930.63
2017-11-21T05:35:51.588Z,930.65
2017-11-21T05:37:03.799Z,930.72
2017-11-21T05:38:16.488Z,930.66
2017-11-21T05:39:29.174Z,930.65
2017-11-21T05:40:41.851Z,930.68
2017-11-21T05:41:54.437Z,930.67
2017-11-21T05:43:06.655Z,930.59
2017-11-21T05:44:19.342Z,930.57
2017-11-21T05:45:32.076Z,930.52
2017-11-21T05:46:44.732Z,930.49
2017-11-21T05:47:57.401Z,930.52
2017-11-21T05:49:10.025Z,930.52
2017-11-21T05:50:22.726Z,930.53
2017-11-21T05:51:35.409Z,930.49
2017-11-21T05:52:48.038Z,930.48
2017-11-21T05:54:00.740Z,930.48
2017-11-21T05:55:13.407Z,930.51
2017-11-21T05:56:26.139Z,930.55
2017-11-21T05:57:38.356Z,930.58
2017-11-21T05:58:51.002Z,930.58
2017-11-21T06:00:03.670Z,930.57
2017-11-21T06:01:15.930Z,930.5
2017-11-21T06:02:28.134Z,930.45
2017-11-21T06:03:40.888Z,930.38
2017-11-21T06:04:53.542Z,930.35
2017-11-21T06:06:06.186Z,930.36
2017-11-21T06:07:18.353Z,930.4
2017-11-21T06:08:30.980Z,930.44
2017-11-21T06:09:43.604Z,930.5
2017-11-21T06:10:56.245Z,930.55
2017-11-21T06:12:08.432Z,930.59
2017-11-21T06:13:21.061Z,930.59
2017-11-21T06:14:33.223Z,930.59
2017-11-21T06:15:45.394Z,930.62
2017-11-21T06:16:58.052Z,930.59
2017-11-21T06:18:10.719Z,930.72
2017-11-21T06:19:23.414Z,930.77
2017-11-21T06:20:36.098Z,930.86
2017-11-21T06:21:48.934Z,930.86
2017-11-21T06:23:01.601Z,930.88
2017-11-21T06:24:14.278Z,930.83
2017-11-21T06:25:26.936Z,930.81
2017-11-21T06:26:39.610Z,930.8
2017-11-21T06:27:52.281Z,930.82
2017-11-21T06:29:04.494Z,930.8
2017-11-21T06:30:17.145Z,930.82
2017-11-21T06:31:29.339Z,930.78
2017-11-21T06:32:41.997Z,930.76
2017-11-21T06:33:54.226Z,930.82
2017-11-21T06:35:06.948Z,930.86
2017-11-21T06:36:19.642Z,930.89
2017-11-21T06:37:32.354Z,930.84
2017-11-21T06:38:44.595Z,930.82
2017-11-21T06:39:57.298Z,930.78
2017-11-21T06:41:09.584Z,930.76
2017-11-21T06:42:21.836Z,930.73
2017-11-21T06:43:34.088Z,930.71
2017-11-21T06:44:46.761Z,930.7
2017-11-21T06:45:59.436Z,930.68
2017-11-21T06:47:11.210Z,930.61
2017-11-21T06:48:23.980Z,930.66
2017-11-21T06:49:36.262Z,930.67
2017-11-21T06:50:48.970Z,930.67
2017-11-21T06:52:01.721Z,930.68
2017-11-21T06:53:13.983Z,930.72
2017-11-21T06:54:26.670Z,930.75
2017-11-21T06:55:38.964Z,930.76
2017-11-21T06:56:51.685Z,930.72
2017-11-21T06:58:03.954Z,930.7
2017-11-21T06:59:16.203Z,930.72
2017-11-21T07:00:28.918Z,930.73
2017-11-21T07:01:41.653Z,930.77
2017-11-21T07:02:54.409Z,930.76
2017-11-21T07:04:06.699Z,930.81
2017-11-21T07:05:18.967Z,930.86
2017-11-21T07:06:31.678Z,930.9
2017-11-21T07:07:44.375Z,930.93
2017-11-21T07:08:57.068Z,930.94
2017-11-21T07:10:09.346Z,930.97
2017-11-21T07:11:21.607Z,930.95
2017-11-21T07:12:33.888Z,930.91
2017-11-21T07:13:46.160Z,930.87
2017-11-21T07:14:58.876Z,930.76
2017-11-21T07:16:11.242Z,930.71
2017-11-21T07:17:23.526Z,930.65
2017-11-21T07:18:35.799Z,930.66
2017-11-21T07:19:48.060Z,930.68
2017-11-21T07:21:00.353Z,930.68
2017-11-21T07:22:12.287Z,930.71
2017-11-21T07:23:25.028Z,930.72
2017-11-21T07:24:37.758Z,930.69
2017-11-21T07:25:50.064Z,930.64
2017-11-21T07:27:02.830Z,930.54
2017-11-21T07:28:15.590Z,930.46
2017-11-21T07:29:28.377Z,930.42
2017-11-21T07:30:41.148Z,930.41
2017-11-21T07:31:53.930Z,930.39
2017-11-21T07:33:06.254Z,930.39
2017-11-21T07:34:19.035Z,930.45
2017-11-21T07:35:31.836Z,930.51
2017-11-21T07:36:44.651Z,930.53
2017-11-21T07:37:56.961Z,930.55
2017-11-21T07:39:09.742Z,930.54
2017-11-21T07:40:22.508Z,930.44
2017-11-21T07:41:35.252Z,930.46
2017-11-21T07:42:47.039Z,930.47
2017-11-21T07:43:59.786Z,930.49
2017-11-21T07:45:12.460Z,930.53
2017-11-21T07:46:25.193Z,930.56
2017-11-21T07:47:37.846Z,930.58
2017-11-21T07:48:50.558Z,930.55
2017-11-21T07:50:03.335Z,930.57
2017-11-21T07:51:15.148Z,930.57
2017-11-21T07:52:27.446Z,930.54
2017-11-21T07:53:40.105Z,930.47
2017-11-21T07:54:52.797Z,930.49
2017-11-21T07:56:05.549Z,930.49
2017-11-21T07:57:17.361Z,930.48
2017-11-21T07:58:29.984Z,930.47
2017-11-21T07:59:42.701Z,930.49
2017-11-21T08:00:55.378Z,930.5
2017-11-21T08:02:08.105Z,930.52
2017-11-21T08:03:20.834Z,930.51
2017-11-21T08:04:33.526Z,930.49
2017-11-21T08:05:46.354Z,930.57
2017-11-21T08:06:59.032Z,930.68
2017-11-21T08:08:11.730Z,930.79
2017-11-21T08:09:24.487Z,930.92
2017-11-21T08:10:37.153Z,931.01
2017-11-21T08:11:49.369Z,931.13
2017-11-21T08:13:02.038Z,931.24
2017-11-21T08:14:14.727Z,931.24
2017-11-21T08:15:27.441Z,931.3
2017-11-21T08:16:40.106Z,931.25
2017-11-21T08:17:52.793Z,931.22
2017-11-21T08:19:05.471Z,931.12
2017-11-21T08:20:17.746Z,931.14
2017-11-21T08:21:30.491Z,931.14
2017-11-21T08:22:43.190Z,931.17
2017-11-21T08:23:55.915Z,931.12
2017-11-21T08:25:08.635Z,931.1
2017-11-21T08:26:20.921Z,931.05
2017-11-21T08:27:33.242Z,931.03
2017-11-21T08:28:45.575Z,931
2017-11-21T08:29:58.304Z,930.95
2017-11-21T08:31:10.576Z,930.94
2017-11-21T08:32:23.244Z,930.95
2017-11-21T08:33:35.937Z,930.97
2017-11-21T08:34:48.611Z,930.96
2017-11-21T08:36:01.317Z,930.91
2017-11-21T08:37:13.562Z,930.84
2017-11-21T08:38:25.819Z,930.82
2017-11-21T08:39:38.086Z,930.79
2017-11-21T08:40:50.775Z,930.7
2017-11-21T08:42:03.501Z,930.71
2017-11-21T08:43:15.843Z,930.78
2017-11-21T08:44:28.519Z,930.87
2017-11-21T08:45:41.205Z,930.94
2017-11-21T08:46:53.856Z,930.99
2017-11-21T08:48:06.093Z,931.01
2017-11-21T08:49:18.826Z,931.03
2017-11-21T08:50:31.535Z,930.99
2017-11-21T08:51:44.223Z,931.02
2017-11-21T08:52:56.908Z,930.94
2017-11-21T08:54:09.596Z,930.91
2017-11-21T08:55:21.756Z,930.92
2017-11-21T08:56:34.486Z,930.9
2017-11-21T08:57:47.169Z,930.87
2017-11-21T08:58:59.314Z,930.95
2017-11-21T09:00:11.973Z,930.94
2017-11-21T09:01:23.811Z,930.99
2017-11-21T09:02:36.057Z,931
2017-11-21T09:03:48.851Z,931.09
2017-11-21T09:05:01.499Z,931.07
2017-11-21T09:06:14.141Z,931.09
2017-11-21T09:07:26.776Z,931.09
2017-11-21T09:08:39.028Z,931.2
2017-11-21T09:09:51.306Z,931.23
2017-11-21T09:11:03.490Z,931.31
2017-11-21T09:12:16.211Z,931.34
2017-11-21T09:13:28.888Z,931.36
2017-11-21T09:14:41.551Z,931.32
2017-11-21T09:15:54.255Z,931.36
2017-11-21T09:17:07.039Z,931.38
2017-11-21T09:18:19.677Z,931.41
2017-11-21T09:19:31.911Z,931.43
2017-11-21T09:20:44.627Z,931.43
2017-11-21T09:21:57.301Z,931.41
2017-11-21T09:23:09.127Z,931.45
2017-11-21T09:24:21.801Z,931.43
2017-11-21T09:25:34.475Z,931.39
2017-11-21T09:26:46.704Z,931.39
2017-11-21T09:27:59.394Z,931.41
2017-11-21T09:29:12.144Z,931.43
2017-11-21T09:30:24.888Z,931.46
2017-11-21T09:31:37.576Z,931.42
2017-11-21T09:32:50.292Z,931.48
2017-11-21T09:34:02.996Z,931.54
2017-11-21T09:35:15.710Z,931.51
2017-11-21T09:36:28.386Z,931.58
2017-11-21T09:37:41.113Z,931.56
2017-11-21T09:38:53.389Z,931.55
2017-11-21T09:40:06.043Z,931.56
2017-11-21T09:41:17.827Z,931.55
2017-11-21T09:42:30.548Z,931.56
2017-11-21T09:43:43.304Z,931.56
2017-11-21T09:44:56.034Z,931.53
2017-11-21T09:46:08.239Z,931.58
2017-11-21T09:47:20.852Z,931.66
2017-11-21T09:48:33.105Z,931.73
2017-11-21T09:49:45.307Z,931.8
2017-11-21T09:50:57.993Z,931.88
2017-11-21T09:52:10.276Z,931.85
2017-11-21T09:53:23.016Z,931.83
2017-11-21T09:54:35.367Z,931.75
2017-11-21T09:55:48.060Z,931.64
2017-11-21T09:57:00.779Z,931.66
2017-11-21T09:58:13.449Z,931.58
2017-11-21T09:59:26.145Z,931.6
2017-11-21T10:00:38.939Z,931.6
2017-11-21T10:01:51.606Z,931.62
2017-11-21T10:03:04.393Z,931.6
2017-11-21T10:04:16.691Z,931.56
2017-11-21T10:05:29.420Z,931.55
2017-11-21T10:06:41.717Z,931.55
2017-11-21T10:07:54.451Z,931.53
2017-11-21T10:09:07.173Z,931.51
2017-11-21T10:10:19.418Z,931.45
2017-11-21T10:11:32.154Z,931.49
2017-11-21T10:12:44.928Z,931.49
2017-11-21T10:13:57.680Z,931.52
2017-11-21T10:15:10.418Z,931.54
2017-11-21T10:16:23.170Z,931.57
2017-11-21T10:17:35.457Z,931.57
2017-11-21T10:18:48.162Z,931.51
2017-11-21T10:20:00.826Z,931.57
2017-11-21T10:21:13.510Z,931.56
2017-11-21T10:22:25.700Z,931.56
2017-11-21T10:23:38.037Z,931.57
2017-11-21T10:24:50.703Z,931.62
2017-11-21T10:26:03.424Z,931.64
2017-11-21T10:27:16.176Z,931.66
2017-11-21T10:28:28.882Z,931.66
2017-11-21T10:29:41.579Z,931.67
2017-11-21T10:30:54.321Z,931.66
2017-11-21T10:32:07.060Z,931.67
2017-11-21T10:33:19.773Z,931.67
2017-11-21T10:34:32.522Z,931.67
2017-11-21T10:35:44.773Z,931.7
2017-11-21T10:36:57.443Z,931.74
2017-11-21T10:38:10.211Z,931.78
2017-11-21T10:39:36.976Z,931.79
2017-11-21T10:40:49.686Z,931.84
2017-11-21T10:42:02.334Z,931.81
2017-11-21T10:43:14.604Z,931.83
2017-11-21T10:44:27.372Z,931.81
2017-11-21T10:45:40.064Z,931.9
2017-11-21T10:46:52.726Z,931.87
2017-11-21T10:48:05.439Z,931.88
2017-11-21T10:49:18.139Z,931.88
2017-11-21T10:50:30.438Z,931.92
2017-11-21T10:51:43.190Z,931.87
2017-11-21T10:52:55.916Z,931.88
2017-11-21T10:54:07.711Z,931.93
2017-11-21T10:55:20.430Z,931.92
2017-11-21T10:56:32.683Z,931.98
2017-11-21T10:57:45.406Z,931.97
2017-11-21T10:58:57.240Z,932.03
2017-11-21T11:00:12.154Z,932.01
2017-11-21T11:01:42.472Z,932.01
2017-11-21T11:02:55.150Z,931.99
2017-11-21T11:04:07.874Z,931.95
2017-11-21T11:05:20.657Z,931.97
2017-11-21T11:06:33.400Z,932
2017-11-21T11:07:45.700Z,932
2017-11-21T11:08:57.948Z,931.96
2017-11-21T11:10:10.278Z,931.97
2017-11-21T11:11:23.005Z,931.96
2017-11-21T11:12:35.294Z,931.96
2017-11-21T11:13:47.562Z,931.98
2017-11-21T11:15:00.342Z,931.96
2017-11-21T11:16:13.226Z,931.97
2017-11-21T11:17:25.487Z,931.95
2017-11-21T11:18:38.238Z,931.92
2017-11-21T11:19:50.980Z,931.9
2017-11-21T11:21:03.672Z,931.84
2017-11-21T11:22:44.618Z,931.85
2017-11-21T11:23:57.355Z,931.79
2017-11-21T11:25:10.096Z,931.79
2017-11-21T11:26:22.372Z,931.72
2017-11-21T11:27:34.634Z,931.76
2017-11-21T11:28:47.349Z,931.77
2017-11-21T11:29:59.598Z,931.77
2017-11-21T11:31:12.282Z,931.8
2017-11-21T11:32:24.963Z,931.82
2017-11-21T11:33:57.775Z,931.87
2017-11-21T11:35:10.502Z,931.94
2017-11-21T11:36:23.212Z,931.95
2017-11-21T11:37:35.484Z,931.96
2017-11-21T11:38:48.189Z,931.97
2017-11-21T11:40:00.394Z,931.99
2017-11-21T11:41:12.633Z,932.05
2017-11-21T11:42:25.338Z,932.11
2017-11-21T11:43:38.058Z,932.18
2017-11-21T11:45:02.922Z,932.21
2017-11-21T11:46:15.212Z,932.23
2017-11-21T11:47:27.520Z,932.26
2017-11-21T11:48:39.842Z,932.24
2017-11-21T11:49:52.597Z,932.18
2017-11-21T11:51:05.319Z,932.18
2017-11-21T11:52:17.586Z,932.17
2017-11-21T11:53:30.327Z,932.19
2017-11-21T11:54:43.049Z,932.18
2017-11-21T11:55:55.809Z,932.19
2017-11-21T11:57:08.139Z,932.21
2017-11-21T11:58:20.881Z,932.17
2017-11-21T11:59:33.647Z,932.19
2017-11-21T12:00:46.387Z,932.18
2017-11-21T12:01:58.751Z,932.17
2017-11-21T12:03:11.498Z,932.11
2017-11-21T12:04:23.795Z,932.09
2017-11-21T12:06:18.135Z,932.07
2017-11-21T12:07:30.874Z,932.05
2017-11-21T12:08:43.562Z,932.05
2017-11-21T12:09:55.857Z,932
2017-11-21T12:11:08.609Z,931.99
2017-11-21T12:12:20.906Z,931.98
2017-11-21T12:13:33.188Z,931.97
2017-11-21T12:14:45.888Z,931.92
2017-11-21T12:15:58.203Z,931.92
2017-11-21T12:17:11.327Z,931.88
2017-11-21T12:18:23.563Z,931.86
2017-11-21T12:19:36.276Z,931.9
2017-11-21T12:20:48.963Z,931.83
2017-11-21T12:22:01.680Z,931.83
2017-11-21T12:23:14.417Z,931.93
2017-11-21T12:24:27.125Z,931.93
2017-11-21T12:25:39.920Z,931.86
2017-11-21T12:26:52.122Z,931.86
2017-11-21T12:28:18.816Z,931.82
2017-11-21T12:29:31.105Z,931.84
2017-11-21T12:30:43.815Z,931.81
2017-11-21T12:31:56.573Z,931.78
2017-11-21T12:33:09.237Z,931.84
2017-11-21T12:34:21.513Z,931.84
2017-11-21T12:35:34.213Z,931.86
2017-11-21T12:36:46.499Z,931.89
2017-11-21T12:37:58.757Z,931.87
2017-11-21T12:39:11.427Z,931.88
2017-11-21T12:40:24.173Z,931.87
2017-11-21T12:41:36.920Z,931.91
2017-11-21T12:42:49.648Z,931.96
2017-11-21T12:44:02.438Z,931.95
2017-11-21T12:45:15.172Z,931.89
2017-11-21T12:46:27.880Z,931.91
2017-11-21T12:47:40.128Z,931.84
2017-11-21T12:48:52.677Z,931.8
2017-11-21T12:50:08.441Z,931.82
2017-11-21T12:51:21.186Z,931.8
2017-11-21T12:52:33.903Z,931.79
2017-11-21T12:53:46.646Z,931.72
2017-11-21T12:54:59.402Z,931.74
2017-11-21T12:56:11.675Z,931.74
2017-11-21T12:57:24.402Z,931.79
2017-11-21T12:58:36.678Z,931.8
2017-11-21T12:59:49.359Z,931.81
2017-11-21T13:01:01.634Z,931.76
2017-11-21T13:02:14.336Z,931.76
2017-11-21T13:03:27.006Z,931.74
2017-11-21T13:04:39.689Z,931.67
2017-11-21T13:05:51.920Z,931.65
2017-11-21T13:07:04.240Z,931.64
2017-11-21T13:08:16.572Z,931.6
2017-11-21T13:09:29.323Z,931.61
2017-11-21T13:11:17.185Z,931.6
2017-11-21T13:12:29.498Z,931.61
2017-11-21T13:13:41.816Z,931.64
2017-11-21T13:14:54.122Z,931.57
2017-11-21T13:16:06.420Z,931.58
2017-11-21T13:17:19.172Z,931.58
2017-11-21T13:18:31.946Z,931.56
2017-11-21T13:19:44.711Z,931.55
2017-11-21T13:21:00.552Z,931.57
2017-11-21T13:22:17.701Z,931.6
2017-11-21T13:23:30.505Z,931.59
2017-11-21T13:24:43.268Z,931.57
2017-11-21T13:25:56.020Z,931.56
2017-11-21T13:27:07.895Z,931.49
2017-11-21T13:28:20.898Z,931.47
2017-11-21T13:29:33.699Z,931.45
2017-11-21T13:30:46.509Z,931.37
2017-11-21T13:31:59.294Z,931.4
2017-11-21T13:33:11.580Z,931.34
2017-11-21T13:34:24.362Z,931.36
2017-11-21T13:35:37.139Z,931.33
2017-11-21T13:36:49.939Z,931.31
2017-11-21T13:38:02.724Z,931.31
2017-11-21T13:39:15.162Z,931.29
2017-11-21T13:40:27.952Z,931.31
2017-11-21T13:41:40.285Z,931.34
2017-11-21T13:42:53.054Z,931.34
2017-11-21T13:44:05.832Z,931.31
2017-11-21T13:45:18.592Z,931.28
2017-11-21T13:46:30.912Z,931.28
2017-11-21T13:47:43.698Z,931.25
2017-11-21T13:48:56.468Z,931.24
2017-11-21T13:50:09.227Z,931.17
2017-11-21T13:51:21.992Z,931.13
2017-11-21T13:52:34.299Z,931.09
2017-11-21T13:53:48.283Z,931.07
2017-11-21T13:55:16.385Z,930.99
2017-11-21T13:56:29.156Z,930.94
2017-11-21T13:57:41.955Z,930.96
2017-11-21T13:58:54.270Z,930.94
2017-11-21T14:00:07.041Z,930.96
2017-11-21T14:01:19.830Z,930.87
2017-11-21T14:02:32.047Z,930.9
2017-11-21T14:03:44.691Z,930.86
2017-11-21T14:04:57.355Z,930.87
2017-11-21T14:06:09.542Z,930.87
2017-11-21T14:07:22.245Z,930.91
2017-11-21T14:08:35.010Z,930.91
2017-11-21T14:09:47.749Z,930.9
2017-11-21T14:11:00.541Z,930.93
2017-11-21T14:12:12.794Z,930.96
2017-11-21T14:13:25.527Z,930.97
2017-11-21T14:14:37.307Z,930.91
2017-11-21T14:15:50.001Z,930.87
2017-11-21T14:17:02.269Z,930.86
2017-11-21T14:18:15.050Z,930.85
2017-11-21T14:19:27.737Z,930.85
2017-11-21T14:20:40.501Z,930.89
2017-11-21T14:21:53.223Z,930.86
2017-11-21T14:23:05.858Z,930.8
2017-11-21T14:24:18.582Z,930.8
2017-11-21T14:25:30.364Z,930.78
2017-11-21T14:26:42.154Z,930.76
2017-11-21T14:27:54.816Z,930.77
2017-11-21T14:29:07.076Z,930.8
2017-11-21T14:30:19.754Z,930.78
2017-11-21T14:31:32.066Z,930.81
2017-11-21T14:32:44.777Z,930.83
2017-11-21T14:33:57.048Z,930.8
2017-11-21T14:35:09.757Z,930.79
2017-11-21T14:36:21.988Z,930.75
2017-11-21T14:37:34.652Z,930.73
2017-11-21T14:38:46.909Z,930.76
2017-11-21T14:39:59.602Z,930.76
2017-11-21T14:41:12.293Z,930.65
2017-11-21T14:42:24.933Z,930.69
2017-11-21T14:43:37.614Z,930.62
2017-11-21T14:44:50.343Z,930.64
2017-11-21T14:46:03.003Z,930.6
2017-11-21T14:47:15.674Z,930.59
2017-11-21T14:48:28.314Z,930.55
2017-11-21T14:49:41.016Z,930.53
2017-11-21T14:50:53.658Z,930.56
2017-11-21T14:52:05.855Z,930.53
2017-11-21T14:53:18.574Z,930.54
2017-11-21T14:54:31.225Z,930.56
2017-11-21T14:55:43.927Z,930.53
2017-11-21T14:56:56.602Z,930.53
2017-11-21T14:58:08.797Z,930.52
2017-11-21T14:59:21.471Z,930.47
2017-11-21T15:00:34.155Z,930.47
2017-11-21T15:01:46.838Z,930.39
2017-11-21T15:02:59.524Z,930.37
2017-11-21T15:04:11.780Z,930.34
2017-11-21T15:05:24.402Z,930.33
2017-11-21T15:06:37.071Z,930.3
2017-11-21T15:07:49.777Z,930.24
2017-11-21T15:09:02.436Z,930.29
2017-11-21T15:10:15.060Z,930.3
2017-11-21T15:11:27.802Z,930.24
2017-11-21T15:12:40.524Z,930.23
2017-11-21T15:13:53.200Z,930.23
2017-11-21T15:15:05.494Z,930.17
2017-11-21T15:16:17.719Z,930.15
2017-11-21T15:17:30.408Z,930.14
2017-11-21T15:18:43.110Z,930.19
2017-11-21T15:19:55.795Z,930.14
2017-11-21T15:21:13.493Z,930.08
2017-11-21T15:22:37.251Z,930.06
2017-11-21T15:23:49.928Z,930.04